createdAt,value
2022-12-11T00:02:01.447Z,93.95
2022-12-11T00:04:49.146Z,93.39
2022-12-11T00:07:37.101Z,92.94
2022-12-11T00:10:24.894Z,92.75
2022-12-11T00:13:12.353Z,92.57
2022-12-11T00:16:00.084Z,91.80
2022-12-11T00:18:47.981Z,91.75
2022-12-11T00:21:35.882Z,91.66
2022-12-11T00:24:23.455Z,91.83
2022-12-11T00:27:12.633Z,91.48
2022-12-11T00:30:00.505Z,91.25
2022-12-11T00:32:48.425Z,91.57
2022-12-11T00:35:42.252Z,91.18
2022-12-11T00:38:30.134Z,91.51
2022-12-11T00:41:19.199Z,91.60
2022-12-11T00:44:08.070Z,91.86
2022-12-11T00:46:55.878Z,92.17
2022-12-11T00:49:49.932Z,91.74
2022-12-11T00:52:42.265Z,91.81
2022-12-11T00:55:30.851Z,91.54
2022-12-11T00:58:19.536Z,92.36
2022-12-11T01:01:14.809Z,92.20
2022-12-11T01:04:06.083Z,92.39
2022-12-11T01:06:53.878Z,92.30
2022-12-11T01:10:00.109Z,92.50
2022-12-11T01:12:49.570Z,92.84
2022-12-11T01:15:46.113Z,92.55
2022-12-11T01:18:34.077Z,92.14
2022-12-11T01:21:22.698Z,92.55
2022-12-11T01:24:10.629Z,92.48
2022-12-11T01:26:58.726Z,92.67
2022-12-11T01:29:46.718Z,92.66
2022-12-11T01:32:36.249Z,92.83
2022-12-11T01:35:24.493Z,92.73
2022-12-11T01:38:14.808Z,92.78
2022-12-11T01:41:02.338Z,92.65
2022-12-11T01:44:15.423Z,92.50
2022-12-11T01:47:02.987Z,92.37
2022-12-11T01:49:51.447Z,92.56
2022-12-11T01:52:41.531Z,92.62
2022-12-11T01:55:29.676Z,92.32
2022-12-11T01:58:20.887Z,92.44
2022-12-11T02:01:14.809Z,92.29
2022-12-11T02:04:03.065Z,92.48
2022-12-11T02:06:53.146Z,92.27
2022-12-11T02:09:43.950Z,92.02
2022-12-11T02:13:05.232Z,92.31
2022-12-11T02:16:13.195Z,92.18
2022-12-11T02:19:18.672Z,91.85
2022-12-11T02:22:14.067Z,91.13
2022-12-11T02:25:42.494Z,90.98
2022-12-11T02:28:51.628Z,91.29
2022-12-11T02:31:47.618Z,91.23
2022-12-11T02:34:39.803Z,91.48
2022-12-11T02:37:31.981Z,90.97
2022-12-11T02:40:23.256Z,91.10
2022-12-11T02:43:16.874Z,91.55
2022-12-11T02:46:07.816Z,91.29
2022-12-11T02:48:57.119Z,91.22
2022-12-11T02:51:45.132Z,91.58
2022-12-11T02:54:38.155Z,91.30
2022-12-11T02:57:46.175Z,91.25
2022-12-11T03:00:34.367Z,91.43
2022-12-11T03:03:22.913Z,91.70
2022-12-11T03:06:18.416Z,91.71
2022-12-11T03:09:07.763Z,91.68
2022-12-11T03:11:55.496Z,92.28
2022-12-11T03:14:43.987Z,92.56
2022-12-11T03:17:53.131Z,93.06
2022-12-11T03:21:15.069Z,93.48
2022-12-11T03:24:20.136Z,93.78
2022-12-11T03:27:26.138Z,94.00
2022-12-11T03:30:19.062Z,93.85
2022-12-11T03:33:16.064Z,94.07
2022-12-11T03:36:11.120Z,94.11
2022-12-11T03:39:05.957Z,94.03
2022-12-11T03:41:55.934Z,94.28
2022-12-11T03:44:48.180Z,93.94
2022-12-11T03:47:37.719Z,93.57
2022-12-11T03:50:28.598Z,93.74
2022-12-11T03:53:18.889Z,93.78
2022-12-11T03:56:09.323Z,93.32
2022-12-11T03:58:57.885Z,93.45
2022-12-11T04:01:46.703Z,93.24
2022-12-11T04:04:34.558Z,93.15
2022-12-11T04:07:22.614Z,93.05
2022-12-11T04:10:10.474Z,92.45
2022-12-11T04:12:58.031Z,92.39
2022-12-11T04:15:45.450Z,92.71
2022-12-11T04:18:51.779Z,92.63
2022-12-11T04:21:58.152Z,92.00
2022-12-11T04:24:49.526Z,91.82
2022-12-11T04:27:49.193Z,91.67
2022-12-11T04:30:38.031Z,92.11
2022-12-11T04:33:26.046Z,92.14
2022-12-11T04:36:14.129Z,91.61
2022-12-11T04:39:02.058Z,91.82
2022-12-11T04:41:50.724Z,92.23
2022-12-11T04:44:38.615Z,91.63
2022-12-11T04:47:26.835Z,91.54
2022-12-11T04:50:15.815Z,91.50
2022-12-11T04:53:05.880Z,91.88
2022-12-11T04:55:55.188Z,92.28
2022-12-11T04:58:44.349Z,92.19
2022-12-11T05:01:32.077Z,92.40
2022-12-11T05:04:19.842Z,92.49
2022-12-11T05:07:09.499Z,92.59
2022-12-11T05:09:57.546Z,92.73
2022-12-11T05:12:44.912Z,92.61
2022-12-11T05:15:32.835Z,92.71
2022-12-11T05:18:20.681Z,92.14
2022-12-11T05:21:14.188Z,92.76
2022-12-11T05:24:02.070Z,93.06
2022-12-11T05:26:49.385Z,93.49
2022-12-11T05:29:37.801Z,93.78
2022-12-11T05:32:25.235Z,94.03
2022-12-11T05:35:12.748Z,94.30
2022-12-11T05:38:01.588Z,94.79
2022-12-11T05:41:05.517Z,95.06
2022-12-11T05:43:53.817Z,95.48
2022-12-11T05:46:41.793Z,95.82
2022-12-11T05:49:31.235Z,95.66
2022-12-11T05:52:19.237Z,95.67
2022-12-11T05:55:07.815Z,95.53
2022-12-11T05:57:55.672Z,95.20
2022-12-11T06:00:43.395Z,95.08
2022-12-11T06:03:31.266Z,95.07
2022-12-11T06:06:18.845Z,95.04
2022-12-11T06:09:07.980Z,94.90
2022-12-11T06:11:55.449Z,94.89
2022-12-11T06:14:43.127Z,94.61
2022-12-11T06:17:31.133Z,94.41
2022-12-11T06:20:18.987Z,94.49
2022-12-11T06:23:07.213Z,94.54
2022-12-11T06:25:55.020Z,94.52
2022-12-11T06:28:42.866Z,94.52
2022-12-11T06:31:30.586Z,94.20
2022-12-11T06:34:18.435Z,93.66
2022-12-11T06:37:06.006Z,93.72
2022-12-11T06:39:53.519Z,93.61
2022-12-11T06:42:41.040Z,93.62
2022-12-11T06:45:28.631Z,93.55
2022-12-11T06:48:16.480Z,93.41
2022-12-11T06:51:16.318Z,93.47
2022-12-11T06:54:04.191Z,93.56
2022-12-11T06:56:51.821Z,93.36
2022-12-11T06:59:39.869Z,93.09
2022-12-11T07:02:27.672Z,92.97
2022-12-11T07:05:15.264Z,92.78
2022-12-11T07:08:02.834Z,92.83
2022-12-11T07:10:50.671Z,92.89
2022-12-11T07:13:38.816Z,92.68
2022-12-11T07:16:26.701Z,92.77
2022-12-11T07:19:14.433Z,92.60
2022-12-11T07:22:02.099Z,92.48
2022-12-11T07:24:50.028Z,92.45
2022-12-11T07:27:37.815Z,92.44
2022-12-11T07:30:25.587Z,92.36
2022-12-11T07:33:13.231Z,92.18
2022-12-11T07:36:06.970Z,92.31
2022-12-11T07:38:54.884Z,91.82
2022-12-11T07:41:42.357Z,91.42
2022-12-11T07:44:32.123Z,90.88
2022-12-11T07:47:20.312Z,90.96
2022-12-11T07:50:08.504Z,90.48
2022-12-11T07:52:56.174Z,89.84
2022-12-11T07:55:43.527Z,89.92
2022-12-11T07:58:56.025Z,89.83
2022-12-11T08:01:44.609Z,89.62
2022-12-11T08:04:35.443Z,89.80
2022-12-11T08:07:23.332Z,89.19
2022-12-11T08:10:10.942Z,89.27
2022-12-11T08:12:58.889Z,89.16
2022-12-11T08:15:48.728Z,89.20
2022-12-11T08:18:37.804Z,89.52
2022-12-11T08:21:29.103Z,89.70
2022-12-11T08:24:21.564Z,90.43
2022-12-11T08:27:09.498Z,90.70
2022-12-11T08:29:57.292Z,89.51
2022-12-11T08:32:44.845Z,88.70
2022-12-11T08:35:39.925Z,88.48
2022-12-11T08:38:27.711Z,88.47
2022-12-11T08:41:20.263Z,88.57
2022-12-11T08:44:16.765Z,88.33
2022-12-11T08:47:05.054Z,88.05
2022-12-11T08:49:53.069Z,88.28
2022-12-11T08:52:42.197Z,88.13
2022-12-11T08:55:29.813Z,88.19
2022-12-11T08:58:17.566Z,88.13
2022-12-11T09:01:10.925Z,88.22
2022-12-11T09:04:00.665Z,88.48
2022-12-11T09:06:48.635Z,88.31
2022-12-11T09:09:36.642Z,88.67
2022-12-11T09:12:24.317Z,88.34
2022-12-11T09:15:12.526Z,88.06
2022-12-11T09:18:00.440Z,87.51
2022-12-11T09:20:48.429Z,87.46
2022-12-11T09:23:36.702Z,87.42
2022-12-11T09:26:25.514Z,87.31
2022-12-11T09:29:13.880Z,87.46
2022-12-11T09:32:01.860Z,87.69
2022-12-11T09:34:51.935Z,87.78
2022-12-11T09:37:39.428Z,87.79
2022-12-11T09:40:28.283Z,87.84
2022-12-11T09:43:20.672Z,87.93
2022-12-11T09:46:15.792Z,88.01
2022-12-11T09:49:12.059Z,87.81
2022-12-11T09:52:23.867Z,87.55
2022-12-11T09:55:24.320Z,87.44
2022-12-11T09:58:28.282Z,87.55
2022-12-11T10:01:24.866Z,88.32
2022-12-11T10:04:42.986Z,88.55
2022-12-11T10:07:39.982Z,89.14
2022-12-11T10:10:48.977Z,89.15
2022-12-11T10:13:45.677Z,89.28
2022-12-11T10:16:46.882Z,89.27
2022-12-11T10:19:35.123Z,89.15
2022-12-11T10:22:29.959Z,89.56
2022-12-11T10:25:26.172Z,89.55
2022-12-11T10:28:18.385Z,89.55
2022-12-11T10:31:51.309Z,89.23
2022-12-11T10:34:45.355Z,89.07
2022-12-11T10:37:33.131Z,89.13
2022-12-11T10:40:22.410Z,88.85
2022-12-11T10:43:10.812Z,89.43
2022-12-11T10:45:58.925Z,89.31
2022-12-11T10:48:55.426Z,89.30
2022-12-11T10:51:42.914Z,89.32
2022-12-11T10:54:40.465Z,89.11
2022-12-11T10:57:36.273Z,89.44
2022-12-11T11:00:40.790Z,88.99
2022-12-11T11:03:29.292Z,89.08
2022-12-11T11:06:20.243Z,88.71
2022-12-11T11:09:37.419Z,88.63
2022-12-11T11:12:28.404Z,88.00
2022-12-11T11:15:31.018Z,87.74
2022-12-11T11:18:30.846Z,87.02
2022-12-11T11:21:21.795Z,86.80
2022-12-11T11:24:29.788Z,85.28
2022-12-11T11:27:46.144Z,84.07
2022-12-11T11:30:41.030Z,83.33
2022-12-11T11:33:30.973Z,83.38
2022-12-11T11:36:28.793Z,83.25
2022-12-11T11:39:29.540Z,83.09
2022-12-11T11:42:37.752Z,83.69
2022-12-11T11:45:33.451Z,83.77
2022-12-11T11:48:48.310Z,84.09
2022-12-11T11:51:56.216Z,84.38
2022-12-11T11:55:06.118Z,84.27
2022-12-11T11:58:15.374Z,84.52
2022-12-11T12:01:02.801Z,84.39
2022-12-11T12:03:51.790Z,84.42
2022-12-11T12:07:14.561Z,83.99
2022-12-11T12:10:46.242Z,84.39
2022-12-11T12:14:01.489Z,84.45
2022-12-11T12:17:09.376Z,84.85
2022-12-11T12:20:25.091Z,84.82
2022-12-11T12:24:01.874Z,85.35
2022-12-11T12:27:50.365Z,85.97
2022-12-11T12:30:35.674Z,85.11
2022-12-11T12:33:29.675Z,84.98
2022-12-11T12:37:00.448Z,85.32
2022-12-11T12:40:32.767Z,85.58
2022-12-11T12:44:07.098Z,85.32
2022-12-11T12:47:14.979Z,85.83
2022-12-11T12:50:05.085Z,86.13
2022-12-11T12:52:54.387Z,86.17
2022-12-11T12:55:42.863Z,86.42
2022-12-11T12:58:36.314Z,85.98
2022-12-11T13:01:27.382Z,85.56
2022-12-11T13:08:05.926Z,84.31
2022-12-11T13:11:09.077Z,84.01
2022-12-11T13:14:28.099Z,84.59
2022-12-11T13:17:21.990Z,84.90
2022-12-11T13:20:20.139Z,85.21
2022-12-11T13:23:07.437Z,84.77
2022-12-11T13:26:04.051Z,84.70
2022-12-11T13:28:52.255Z,85.26
2022-12-11T13:31:45.278Z,85.66
2022-12-11T13:34:36.273Z,86.23
2022-12-11T13:37:36.161Z,86.31
2022-12-11T13:40:35.178Z,86.39
2022-12-11T13:43:27.504Z,86.27
2022-12-11T13:46:19.684Z,86.40
2022-12-11T13:49:17.977Z,86.80
2022-12-11T13:52:07.560Z,87.17
2022-12-11T13:54:59.234Z,87.23
2022-12-11T13:57:47.334Z,87.40
2022-12-11T14:00:35.169Z,87.41
2022-12-11T14:03:23.675Z,87.33
2022-12-11T14:06:18.373Z,87.29
2022-12-11T14:09:08.387Z,87.30
2022-12-11T14:11:57.459Z,87.36
2022-12-11T14:14:55.209Z,87.22
2022-12-11T14:17:48.491Z,87.37
2022-12-11T14:20:39.342Z,87.38
2022-12-11T14:23:31.903Z,87.31
2022-12-11T14:26:30.880Z,87.48
2022-12-11T14:29:33.819Z,87.52
2022-12-11T14:32:42.019Z,87.62
2022-12-11T14:35:38.915Z,87.69
2022-12-11T14:38:37.184Z,87.59
2022-12-11T14:41:57.781Z,87.75
2022-12-11T14:44:55.459Z,87.47
2022-12-11T14:47:44.803Z,87.77
2022-12-11T14:50:43.808Z,87.80
2022-12-11T14:53:40.948Z,87.91
2022-12-11T14:56:30.397Z,88.34
2022-12-11T14:59:29.980Z,88.49
2022-12-11T15:02:35.951Z,88.47
2022-12-11T15:05:24.253Z,88.23
2022-12-11T15:08:12.714Z,88.23
2022-12-11T15:11:16.861Z,88.46
2022-12-11T15:14:06.024Z,88.51
2022-12-11T15:16:57.632Z,88.64
2022-12-11T15:19:53.441Z,88.58
2022-12-11T15:22:44.077Z,88.50
2022-12-11T15:25:32.764Z,88.41
2022-12-11T15:28:37.423Z,88.07
2022-12-11T15:31:32.199Z,87.68
2022-12-11T15:34:23.911Z,87.43
2022-12-11T15:37:22.278Z,87.17
2022-12-11T15:40:11.298Z,86.99
2022-12-11T15:43:03.324Z,86.17
2022-12-11T15:45:51.485Z,85.58
2022-12-11T15:48:39.217Z,85.45
2022-12-11T15:51:27.738Z,85.75
2022-12-11T15:54:15.729Z,85.92
2022-12-11T15:57:07.983Z,86.08
2022-12-11T15:59:55.650Z,86.20
2022-12-11T16:02:43.383Z,86.16
2022-12-11T16:05:33.502Z,85.86
2022-12-11T16:08:23.699Z,86.16
2022-12-11T16:11:14.010Z,85.54
2022-12-11T16:14:04.431Z,84.93
2022-12-11T16:16:52.212Z,85.18
2022-12-11T16:19:42.214Z,84.91
2022-12-11T16:22:29.779Z,84.75
2022-12-11T16:25:17.560Z,84.62
2022-12-11T16:28:05.759Z,84.48
2022-12-11T16:30:53.625Z,84.31
2022-12-11T16:33:41.615Z,84.25
2022-12-11T16:36:29.336Z,84.27
2022-12-11T16:39:17.352Z,83.61
2022-12-11T16:42:06.496Z,83.36
2022-12-11T16:44:54.058Z,83.04
2022-12-11T16:47:42.115Z,82.57
2022-12-11T16:50:29.739Z,82.78
2022-12-11T16:53:17.689Z,82.10
2022-12-11T16:56:07.040Z,81.95
2022-12-11T16:58:55.129Z,81.48
2022-12-11T17:01:42.947Z,81.17
2022-12-11T17:04:30.872Z,81.43
2022-12-11T17:07:19.698Z,81.61
2022-12-11T17:10:08.250Z,81.62
2022-12-11T17:12:55.831Z,81.84
2022-12-11T17:15:45.206Z,81.28
2022-12-11T17:18:33.779Z,81.18
2022-12-11T17:21:22.863Z,81.37
2022-12-11T17:24:10.904Z,81.48
2022-12-11T17:26:59.897Z,81.58
2022-12-11T17:29:49.864Z,81.43
2022-12-11T17:32:38.277Z,81.70
2022-12-11T17:35:25.853Z,81.69
2022-12-11T17:38:13.764Z,81.90
2022-12-11T17:41:08.023Z,81.89
2022-12-11T17:43:56.057Z,81.99
2022-12-11T17:46:43.826Z,81.92
2022-12-11T17:49:31.453Z,81.65
2022-12-11T17:52:19.971Z,81.09
2022-12-11T17:55:08.669Z,81.41
2022-12-11T17:57:56.399Z,81.15
2022-12-11T18:00:46.580Z,80.87
2022-12-11T18:03:35.215Z,80.20
2022-12-11T18:06:23.368Z,80.09
2022-12-11T18:09:11.371Z,80.12
2022-12-11T18:11:59.127Z,79.37
2022-12-11T18:14:46.863Z,79.68
2022-12-11T18:17:35.440Z,79.65
2022-12-11T18:20:23.331Z,79.32
2022-12-11T18:23:11.048Z,79.31
2022-12-11T18:25:58.506Z,79.32
2022-12-11T18:28:47.681Z,79.38
2022-12-11T18:31:40.654Z,79.70
2022-12-11T18:34:30.264Z,79.69
2022-12-11T18:37:18.000Z,79.74
2022-12-11T18:40:07.640Z,79.29
2022-12-11T18:42:55.998Z,79.39
2022-12-11T18:45:45.721Z,79.59
2022-12-11T18:48:33.692Z,79.96
2022-12-11T18:51:23.995Z,80.16
2022-12-11T18:54:12.269Z,80.43
2022-12-11T18:57:00.142Z,80.81
2022-12-11T18:59:53.173Z,80.76
2022-12-11T19:02:40.763Z,80.52
2022-12-11T19:05:29.606Z,80.60
2022-12-11T19:08:17.767Z,80.80
2022-12-11T19:11:07.428Z,79.95
2022-12-11T19:13:56.816Z,79.58
2022-12-11T19:16:47.627Z,79.38
2022-12-11T19:19:36.098Z,80.51
2022-12-11T19:22:23.965Z,79.39
2022-12-11T19:25:12.209Z,78.91
2022-12-11T19:28:01.041Z,79.28
2022-12-11T19:30:49.867Z,79.49
2022-12-11T19:33:38.578Z,79.64
2022-12-11T19:36:30.669Z,79.86
2022-12-11T19:39:19.801Z,79.80
2022-12-11T19:42:07.821Z,80.11
2022-12-11T19:44:56.015Z,79.84
2022-12-11T19:47:43.830Z,79.84
2022-12-11T19:50:31.674Z,80.11
2022-12-11T19:53:19.319Z,80.17
2022-12-11T19:56:08.391Z,80.39
2022-12-11T19:58:57.091Z,80.73
2022-12-11T20:01:49.683Z,80.97
2022-12-11T20:04:37.344Z,81.27
2022-12-11T20:07:30.332Z,81.34
2022-12-11T20:10:20.233Z,81.67
2022-12-11T20:13:08.201Z,81.92
2022-12-11T20:15:57.146Z,82.03
2022-12-11T20:18:45.916Z,82.20
2022-12-11T20:21:33.786Z,82.11
2022-12-11T20:24:22.243Z,81.77
2022-12-11T20:27:10.211Z,81.43
2022-12-11T20:29:57.749Z,81.46
2022-12-11T20:32:45.927Z,81.28
2022-12-11T20:35:34.019Z,81.26
2022-12-11T20:38:22.271Z,80.97
2022-12-11T20:41:15.334Z,80.83
2022-12-11T20:44:02.768Z,80.84
2022-12-11T20:46:50.982Z,80.98
2022-12-11T20:49:39.453Z,81.07
2022-12-11T20:52:28.148Z,81.58
2022-12-11T20:55:15.809Z,81.86
2022-12-11T20:58:03.135Z,82.09
2022-12-11T21:00:51.440Z,82.26
2022-12-11T21:03:42.105Z,82.31
2022-12-11T21:06:34.728Z,82.40
2022-12-11T21:09:25.505Z,82.44
2022-12-11T21:12:13.658Z,82.59
2022-12-11T21:15:01.564Z,82.48
2022-12-11T21:17:48.979Z,82.25
2022-12-11T21:20:36.776Z,82.24
2022-12-11T21:23:25.026Z,82.47
2022-12-11T21:26:13.848Z,82.70
2022-12-11T21:29:01.379Z,82.77
2022-12-11T21:31:49.866Z,82.91
2022-12-11T21:34:38.271Z,83.02
2022-12-11T21:37:26.103Z,83.04
2022-12-11T21:40:14.141Z,83.17
2022-12-11T21:43:01.567Z,83.36
2022-12-11T21:46:00.889Z,83.55
2022-12-11T21:48:49.956Z,83.36
2022-12-11T21:51:46.788Z,82.87
2022-12-11T21:54:35.767Z,82.50
2022-12-11T21:57:26.519Z,82.14
2022-12-11T22:00:16.070Z,81.99
2022-12-11T22:03:03.869Z,82.33
2022-12-11T22:05:52.309Z,82.64
2022-12-11T22:08:39.969Z,82.64
2022-12-11T22:11:31.819Z,82.82
2022-12-11T22:14:19.551Z,82.96
2022-12-11T22:17:07.547Z,83.14
2022-12-11T22:19:55.307Z,83.07
2022-12-11T22:22:42.932Z,82.96
2022-12-11T22:25:31.761Z,82.82
2022-12-11T22:28:20.020Z,82.59
2022-12-11T22:31:12.382Z,82.68
2022-12-11T22:34:00.161Z,82.06
2022-12-11T22:36:48.495Z,81.68
2022-12-11T22:39:36.457Z,81.27
2022-12-11T22:42:24.822Z,81.50
2022-12-11T22:45:12.793Z,81.50
2022-12-11T22:48:00.936Z,81.84
2022-12-11T22:50:48.790Z,81.73
2022-12-11T22:53:36.273Z,81.99
2022-12-11T22:56:24.262Z,81.82
2022-12-11T22:59:12.252Z,81.88
2022-12-11T23:02:02.403Z,81.88
2022-12-11T23:04:51.037Z,81.74
2022-12-11T23:07:39.652Z,81.66
2022-12-11T23:10:27.424Z,81.45
2022-12-11T23:13:15.302Z,81.58
2022-12-11T23:16:03.039Z,81.54
2022-12-11T23:18:51.048Z,81.61
2022-12-11T23:21:39.249Z,81.50
2022-12-11T23:24:26.492Z,81.14
2022-12-11T23:27:14.109Z,81.06
2022-12-11T23:30:01.915Z,80.65
2022-12-11T23:32:50.009Z,80.71
2022-12-11T23:35:37.968Z,80.75
2022-12-11T23:38:25.833Z,80.62
2022-12-11T23:41:16.356Z,80.51
2022-12-11T23:44:04.786Z,80.32
2022-12-11T23:46:52.619Z,79.90
2022-12-11T23:49:40.085Z,79.52
2022-12-11T23:52:27.968Z,79.15
2022-12-11T23:55:15.864Z,78.48
2022-12-11T23:58:03.410Z,78.74
